sensor_id;sensor_type;location;lat;lon;timestamp;P1;durP1;ratioP1;P2;durP2;ratioP2
52530;SDS011;38441;52.894;6.040;2023-05-10T00:09:15;10.88;;;8.43;;
52530;SDS011;38441;52.894;6.040;2023-05-10T00:11:41;11.75;;;8.40;;
52530;SDS011;38441;52.894;6.040;2023-05-10T00:14:07;12.98;;;7.85;;
52530;SDS011;38441;52.894;6.040;2023-05-10T00:16:42;12.35;;;8.00;;
52530;SDS011;38441;52.894;6.040;2023-05-10T00:19:08;10.60;;;7.78;;
52530;SDS011;38441;52.894;6.040;2023-05-10T00:21:36;10.70;;;7.80;;
52530;SDS011;38441;52.894;6.040;2023-05-10T00:24:02;11.68;;;8.13;;
52530;SDS011;38441;52.894;6.040;2023-05-10T00:26:29;11.25;;;7.95;;
52530;SDS011;38441;52.894;6.040;2023-05-10T00:29:04;12.55;;;7.47;;
52530;SDS011;38441;52.894;6.040;2023-05-10T00:31:30;11.88;;;7.30;;
52530;SDS011;38441;52.894;6.040;2023-05-10T00:33:56;9.98;;;7.25;;
52530;SDS011;38441;52.894;6.040;2023-05-10T00:36:22;9.63;;;6.85;;
52530;SDS011;38441;52.894;6.040;2023-05-10T00:38:52;10.57;;;7.75;;
52530;SDS011;38441;52.894;6.040;2023-05-10T00:41:21;9.85;;;7.20;;
52530;SDS011;38441;52.894;6.040;2023-05-10T00:43:47;9.98;;;6.70;;
52530;SDS011;38441;52.894;6.040;2023-05-10T00:46:14;9.38;;;7.13;;
52530;SDS011;38441;52.894;6.040;2023-05-10T00:48:41;9.65;;;7.28;;
52530;SDS011;38441;52.894;6.040;2023-05-10T00:51:08;8.95;;;6.10;;
52530;SDS011;38441;52.894;6.040;2023-05-10T00:53:35;12.35;;;7.03;;
52530;SDS011;38441;52.894;6.040;2023-05-10T00:56:04;10.30;;;6.78;;
52530;SDS011;38441;52.894;6.040;2023-05-10T00:58:30;8.07;;;6.07;;
52530;SDS011;38441;52.894;6.040;2023-05-10T01:00:56;8.40;;;6.03;;
52530;SDS011;38441;52.894;6.040;2023-05-10T01:03:24;9.32;;;6.15;;
52530;SDS011;38441;52.894;6.040;2023-05-10T01:05:52;9.05;;;6.40;;
52530;SDS011;38441;52.894;6.040;2023-05-10T01:08:20;8.57;;;6.13;;
52530;SDS011;38441;52.894;6.040;2023-05-10T01:10:47;7.93;;;6.00;;
52530;SDS011;38441;52.894;6.040;2023-05-10T01:13:16;10.50;;;6.88;;
52530;SDS011;38441;52.894;6.040;2023-05-10T01:15:52;8.73;;;5.82;;
52530;SDS011;38441;52.894;6.040;2023-05-10T01:18:19;7.65;;;5.60;;
52530;SDS011;38441;52.894;6.040;2023-05-10T01:20:47;7.50;;;5.57;;
52530;SDS011;38441;52.894;6.040;2023-05-10T01:26:19;8.20;;;5.38;;
52530;SDS011;38441;52.894;6.040;2023-05-10T01:35:15;6.82;;;4.22;;
52530;SDS011;38441;52.894;6.040;2023-05-10T01:37:50;5.78;;;4.32;;
52530;SDS011;38441;52.894;6.040;2023-05-10T01:40:45;7.18;;;4.28;;
52530;SDS011;38441;52.894;6.040;2023-05-10T01:43:19;5.25;;;4.22;;
52530;SDS011;38441;52.894;6.040;2023-05-10T01:46:10;6.05;;;4.25;;
52530;SDS011;38441;52.894;6.040;2023-05-10T01:48:50;6.20;;;3.92;;
52530;SDS011;38441;52.894;6.040;2023-05-10T01:51:23;5.80;;;4.15;;
52530;SDS011;38441;52.894;6.040;2023-05-10T01:53:51;6.72;;;4.10;;
52530;SDS011;38441;52.894;6.040;2023-05-10T01:56:24;6.95;;;4.35;;
52530;SDS011;38441;52.894;6.040;2023-05-10T01:58:53;5.53;;;4.07;;
52530;SDS011;38441;52.894;6.040;2023-05-10T02:01:20;5.82;;;3.75;;
52530;SDS011;38441;52.894;6.040;2023-05-10T02:03:47;5.82;;;4.00;;
52530;SDS011;38441;52.894;6.040;2023-05-10T02:06:15;4.97;;;3.60;;
52530;SDS011;38441;52.894;6.040;2023-05-10T02:08:43;5.35;;;3.83;;
52530;SDS011;38441;52.894;6.040;2023-05-10T02:11:12;6.05;;;3.90;;
52530;SDS011;38441;52.894;6.040;2023-05-10T02:13:39;5.30;;;3.92;;
52530;SDS011;38441;52.894;6.040;2023-05-10T02:16:06;5.70;;;3.75;;
52530;SDS011;38441;52.894;6.040;2023-05-10T02:18:33;5.40;;;3.55;;
52530;SDS011;38441;52.894;6.040;2023-05-10T02:21:01;5.35;;;3.90;;
52530;SDS011;38441;52.894;6.040;2023-05-10T02:23:28;6.55;;;3.45;;
52530;SDS011;38441;52.894;6.040;2023-05-10T02:25:54;5.00;;;3.38;;
52530;SDS011;38441;52.894;6.040;2023-05-10T02:28:22;5.40;;;3.70;;
52530;SDS011;38441;52.894;6.040;2023-05-10T02:30:50;7.00;;;3.47;;
52530;SDS011;38441;52.894;6.040;2023-05-10T02:33:17;7.18;;;3.90;;
52530;SDS011;38441;52.894;6.040;2023-05-10T02:35:43;7.45;;;4.18;;
52530;SDS011;38441;52.894;6.040;2023-05-10T02:38:10;4.32;;;3.22;;
52530;SDS011;38441;52.894;6.040;2023-05-10T02:40:37;6.35;;;3.63;;
52530;SDS011;38441;52.894;6.040;2023-05-10T02:43:03;4.70;;;3.40;;
52530;SDS011;38441;52.894;6.040;2023-05-10T02:45:31;4.90;;;3.55;;
52530;SDS011;38441;52.894;6.040;2023-05-10T02:47:59;5.40;;;3.85;;
52530;SDS011;38441;52.894;6.040;2023-05-10T02:50:25;5.45;;;3.72;;
52530;SDS011;38441;52.894;6.040;2023-05-10T02:52:54;4.65;;;3.40;;
52530;SDS011;38441;52.894;6.040;2023-05-10T02:55:32;7.63;;;3.50;;
52530;SDS011;38441;52.894;6.040;2023-05-10T02:58:01;5.40;;;3.50;;
52530;SDS011;38441;52.894;6.040;2023-05-10T03:00:28;5.18;;;3.70;;
52530;SDS011;38441;52.894;6.040;2023-05-10T03:02:54;6.63;;;4.32;;
52530;SDS011;38441;52.894;6.040;2023-05-10T03:05:20;6.25;;;4.47;;
52530;SDS011;38441;52.894;6.040;2023-05-10T03:07:45;6.20;;;4.10;;
52530;SDS011;38441;52.894;6.040;2023-05-10T03:10:11;6.47;;;4.47;;
52530;SDS011;38441;52.894;6.040;2023-05-10T03:18:10;5.88;;;3.83;;
52530;SDS011;38441;52.894;6.040;2023-05-10T03:20:42;7.65;;;4.07;;
52530;SDS011;38441;52.894;6.040;2023-05-10T03:25:40;5.57;;;3.55;;
52530;SDS011;38441;52.894;6.040;2023-05-10T03:28:08;5.32;;;3.65;;
52530;SDS011;38441;52.894;6.040;2023-05-10T03:30:34;4.57;;;3.38;;
52530;SDS011;38441;52.894;6.040;2023-05-10T03:33:05;6.25;;;3.65;;
52530;SDS011;38441;52.894;6.040;2023-05-10T03:35:31;5.55;;;3.38;;
52530;SDS011;38441;52.894;6.040;2023-05-10T03:37:57;4.50;;;3.30;;
52530;SDS011;38441;52.894;6.040;2023-05-10T03:40:22;5.55;;;3.33;;
52530;SDS011;38441;52.894;6.040;2023-05-10T03:42:49;5.32;;;3.60;;
52530;SDS011;38441;52.894;6.040;2023-05-10T03:45:14;3.28;;;2.72;;
52530;SDS011;38441;52.894;6.040;2023-05-10T03:47:40;4.22;;;3.17;;
52530;SDS011;38441;52.894;6.040;2023-05-10T03:50:06;5.07;;;3.30;;
52530;SDS011;38441;52.894;6.040;2023-05-10T03:52:32;3.85;;;2.97;;
52530;SDS011;38441;52.894;6.040;2023-05-10T03:54:58;4.57;;;3.13;;
52530;SDS011;38441;52.894;6.040;2023-05-10T03:57:24;5.07;;;3.00;;
52530;SDS011;38441;52.894;6.040;2023-05-10T03:59:49;5.28;;;2.95;;
52530;SDS011;38441;52.894;6.040;2023-05-10T04:02:15;5.15;;;2.75;;
52530;SDS011;38441;52.894;6.040;2023-05-10T04:04:41;4.75;;;3.00;;
52530;SDS011;38441;52.894;6.040;2023-05-10T04:07:06;3.80;;;2.70;;
52530;SDS011;38441;52.894;6.040;2023-05-10T04:09:32;4.55;;;2.63;;
52530;SDS011;38441;52.894;6.040;2023-05-10T04:11:58;5.15;;;3.00;;
52530;SDS011;38441;52.894;6.040;2023-05-10T04:14:25;3.70;;;3.22;;
52530;SDS011;38441;52.894;6.040;2023-05-10T04:16:50;4.13;;;3.03;;
52530;SDS011;38441;52.894;6.040;2023-05-10T04:19:16;4.93;;;3.28;;
52530;SDS011;38441;52.894;6.040;2023-05-10T04:21:42;6.35;;;3.75;;
52530;SDS011;38441;52.894;6.040;2023-05-10T04:24:07;4.70;;;3.58;;
52530;SDS011;38441;52.894;6.040;2023-05-10T04:26:33;6.78;;;3.30;;
52530;SDS011;38441;52.894;6.040;2023-05-10T04:28:58;6.07;;;3.38;;
52530;SDS011;38441;52.894;6.040;2023-05-10T04:31:24;6.88;;;3.40;;
52530;SDS011;38441;52.894;6.040;2023-05-10T04:33:51;4.47;;;3.28;;
52530;SDS011;38441;52.894;6.040;2023-05-10T04:36:17;4.13;;;3.17;;
52530;SDS011;38441;52.894;6.040;2023-05-10T04:38:42;3.97;;;3.05;;
52530;SDS011;38441;52.894;6.040;2023-05-10T04:41:09;4.45;;;3.35;;
52530;SDS011;38441;52.894;6.040;2023-05-10T04:43:35;4.60;;;3.47;;
52530;SDS011;38441;52.894;6.040;2023-05-10T04:46:02;7.90;;;3.78;;
52530;SDS011;38441;52.894;6.040;2023-05-10T04:48:28;6.68;;;3.88;;
52530;SDS011;38441;52.894;6.040;2023-05-10T04:50:54;6.13;;;3.90;;
52530;SDS011;38441;52.894;6.040;2023-05-10T04:53:19;5.68;;;4.03;;
52530;SDS011;38441;52.894;6.040;2023-05-10T04:55:45;7.10;;;4.32;;
52530;SDS011;38441;52.894;6.040;2023-05-10T04:58:11;5.47;;;4.07;;
52530;SDS011;38441;52.894;6.040;2023-05-10T05:00:37;5.57;;;4.05;;
52530;SDS011;38441;52.894;6.040;2023-05-10T05:03:03;6.47;;;4.38;;
52530;SDS011;38441;52.894;6.040;2023-05-10T05:05:28;5.20;;;3.97;;
52530;SDS011;38441;52.894;6.040;2023-05-10T05:07:54;5.65;;;3.70;;
52530;SDS011;38441;52.894;6.040;2023-05-10T05:10:19;4.82;;;3.45;;
52530;SDS011;38441;52.894;6.040;2023-05-10T05:12:45;6.38;;;3.60;;
52530;SDS011;38441;52.894;6.040;2023-05-10T05:15:11;5.57;;;3.92;;
52530;SDS011;38441;52.894;6.040;2023-05-10T05:17:36;6.25;;;5.03;;
52530;SDS011;38441;52.894;6.040;2023-05-10T05:20:02;6.88;;;5.40;;
52530;SDS011;38441;52.894;6.040;2023-05-10T05:22:28;6.72;;;4.88;;
52530;SDS011;38441;52.894;6.040;2023-05-10T05:24:54;8.00;;;5.60;;
52530;SDS011;38441;52.894;6.040;2023-05-10T05:27:20;7.15;;;4.40;;
52530;SDS011;38441;52.894;6.040;2023-05-10T05:29:56;7.47;;;5.03;;
52530;SDS011;38441;52.894;6.040;2023-05-10T05:32:22;6.05;;;3.95;;
52530;SDS011;38441;52.894;6.040;2023-05-10T05:34:48;5.32;;;3.20;;
52530;SDS011;38441;52.894;6.040;2023-05-10T05:37:15;4.80;;;3.20;;
52530;SDS011;38441;52.894;6.040;2023-05-10T05:39:42;3.50;;;2.60;;
52530;SDS011;38441;52.894;6.040;2023-05-10T05:42:08;3.75;;;2.20;;
52530;SDS011;38441;52.894;6.040;2023-05-10T05:44:34;3.83;;;2.15;;
52530;SDS011;38441;52.894;6.040;2023-05-10T05:47:00;4.22;;;2.13;;
52530;SDS011;38441;52.894;6.040;2023-05-10T05:49:25;3.80;;;2.47;;
52530;SDS011;38441;52.894;6.040;2023-05-10T05:51:51;3.60;;;2.58;;
52530;SDS011;38441;52.894;6.040;2023-05-10T05:54:17;4.97;;;2.67;;
52530;SDS011;38441;52.894;6.040;2023-05-10T05:56:42;4.50;;;2.63;;
52530;SDS011;38441;52.894;6.040;2023-05-10T05:59:09;3.95;;;2.45;;
52530;SDS011;38441;52.894;6.040;2023-05-10T06:01:50;3.50;;;2.70;;
52530;SDS011;38441;52.894;6.040;2023-05-10T06:04:16;5.18;;;3.20;;
52530;SDS011;38441;52.894;6.040;2023-05-10T06:06:42;4.32;;;2.83;;
52530;SDS011;38441;52.894;6.040;2023-05-10T06:09:08;5.45;;;2.58;;
52530;SDS011;38441;52.894;6.040;2023-05-10T06:11:34;4.85;;;2.40;;
52530;SDS011;38441;52.894;6.040;2023-05-10T06:14:01;3.20;;;2.53;;
52530;SDS011;38441;52.894;6.040;2023-05-10T06:16:28;4.00;;;2.25;;
52530;SDS011;38441;52.894;6.040;2023-05-10T06:18:54;3.20;;;2.00;;
52530;SDS011;38441;52.894;6.040;2023-05-10T06:21:20;3.58;;;1.90;;
52530;SDS011;38441;52.894;6.040;2023-05-10T06:23:46;2.75;;;1.83;;
52530;SDS011;38441;52.894;6.040;2023-05-10T06:26:11;4.38;;;2.05;;
52530;SDS011;38441;52.894;6.040;2023-05-10T06:28:37;2.55;;;2.08;;
52530;SDS011;38441;52.894;6.040;2023-05-10T06:31:04;4.93;;;2.38;;
52530;SDS011;38441;52.894;6.040;2023-05-10T06:33:30;6.90;;;3.70;;
52530;SDS011;38441;52.894;6.040;2023-05-10T06:35:56;7.50;;;3.25;;
52530;SDS011;38441;52.894;6.040;2023-05-10T06:38:22;3.97;;;2.35;;
52530;SDS011;38441;52.894;6.040;2023-05-10T06:40:48;3.50;;;1.40;;
52530;SDS011;38441;52.894;6.040;2023-05-10T06:43:13;3.08;;;1.40;;
52530;SDS011;38441;52.894;6.040;2023-05-10T06:45:39;3.33;;;1.58;;
52530;SDS011;38441;52.894;6.040;2023-05-10T06:48:06;2.50;;;1.67;;
52530;SDS011;38441;52.894;6.040;2023-05-10T06:50:32;6.05;;;2.28;;
52530;SDS011;38441;52.894;6.040;2023-05-10T06:52:58;3.67;;;2.10;;
52530;SDS011;38441;52.894;6.040;2023-05-10T06:55:25;4.00;;;2.08;;
52530;SDS011;38441;52.894;6.040;2023-05-10T06:57:51;4.95;;;2.42;;
52530;SDS011;38441;52.894;6.040;2023-05-10T07:00:18;3.78;;;2.08;;
52530;SDS011;38441;52.894;6.040;2023-05-10T07:02:44;3.10;;;2.10;;
52530;SDS011;38441;52.894;6.040;2023-05-10T07:05:14;4.53;;;2.25;;
52530;SDS011;38441;52.894;6.040;2023-05-10T07:07:40;5.35;;;2.50;;
52530;SDS011;38441;52.894;6.040;2023-05-10T07:10:06;4.00;;;2.40;;
52530;SDS011;38441;52.894;6.040;2023-05-10T07:12:32;3.95;;;2.65;;
52530;SDS011;38441;52.894;6.040;2023-05-10T07:14:58;8.93;;;5.35;;
52530;SDS011;38441;52.894;6.040;2023-05-10T07:17:24;10.07;;;5.63;;
52530;SDS011;38441;52.894;6.040;2023-05-10T07:19:49;11.50;;;6.75;;
52530;SDS011;38441;52.894;6.040;2023-05-10T07:22:15;9.90;;;5.40;;
52530;SDS011;38441;52.894;6.040;2023-05-10T07:24:41;6.32;;;2.67;;
52530;SDS011;38441;52.894;6.040;2023-05-10T07:27:07;3.97;;;2.05;;
52530;SDS011;38441;52.894;6.040;2023-05-10T07:29:34;3.33;;;1.77;;
52530;SDS011;38441;52.894;6.040;2023-05-10T07:31:59;3.45;;;1.90;;
52530;SDS011;38441;52.894;6.040;2023-05-10T07:34:26;2.45;;;1.80;;
52530;SDS011;38441;52.894;6.040;2023-05-10T07:36:52;3.85;;;2.42;;
52530;SDS011;38441;52.894;6.040;2023-05-10T07:39:18;3.95;;;2.50;;
52530;SDS011;38441;52.894;6.040;2023-05-10T07:41:45;3.55;;;2.38;;
52530;SDS011;38441;52.894;6.040;2023-05-10T07:44:31;3.78;;;2.78;;
52530;SDS011;38441;52.894;6.040;2023-05-10T07:46:57;4.03;;;2.90;;
52530;SDS011;38441;52.894;6.040;2023-05-10T07:49:23;4.10;;;2.53;;
52530;SDS011;38441;52.894;6.040;2023-05-10T07:51:49;4.50;;;2.70;;
52530;SDS011;38441;52.894;6.040;2023-05-10T07:54:18;8.80;;;2.95;;
52530;SDS011;38441;52.894;6.040;2023-05-10T07:56:43;4.40;;;2.72;;
52530;SDS011;38441;52.894;6.040;2023-05-10T07:59:15;4.28;;;2.97;;
52530;SDS011;38441;52.894;6.040;2023-05-10T08:01:43;3.92;;;2.88;;
52530;SDS011;38441;52.894;6.040;2023-05-10T08:04:08;3.92;;;2.58;;
52530;SDS011;38441;52.894;6.040;2023-05-10T08:06:34;4.40;;;3.00;;
52530;SDS011;38441;52.894;6.040;2023-05-10T08:09:00;4.75;;;2.90;;
52530;SDS011;38441;52.894;6.040;2023-05-10T08:11:29;4.40;;;2.90;;
52530;SDS011;38441;52.894;6.040;2023-05-10T08:13:58;6.75;;;3.05;;
52530;SDS011;38441;52.894;6.040;2023-05-10T08:16:23;4.22;;;2.75;;
52530;SDS011;38441;52.894;6.040;2023-05-10T08:18:49;3.97;;;2.58;;
52530;SDS011;38441;52.894;6.040;2023-05-10T08:21:15;5.22;;;2.70;;
52530;SDS011;38441;52.894;6.040;2023-05-10T08:23:41;4.93;;;2.53;;
52530;SDS011;38441;52.894;6.040;2023-05-10T08:26:32;3.80;;;2.85;;
52530;SDS011;38441;52.894;6.040;2023-05-10T08:28:58;5.72;;;2.85;;
52530;SDS011;38441;52.894;6.040;2023-05-10T08:31:24;4.78;;;2.10;;
52530;SDS011;38441;52.894;6.040;2023-05-10T08:33:50;3.40;;;2.10;;
52530;SDS011;38441;52.894;6.040;2023-05-10T08:36:20;3.90;;;2.17;;
52530;SDS011;38441;52.894;6.040;2023-05-10T08:38:49;3.72;;;2.30;;
52530;SDS011;38441;52.894;6.040;2023-05-10T08:41:25;3.40;;;1.85;;
52530;SDS011;38441;52.894;6.040;2023-05-10T08:44:18;2.47;;;1.60;;
52530;SDS011;38441;52.894;6.040;2023-05-10T08:46:45;4.47;;;2.00;;
52530;SDS011;38441;52.894;6.040;2023-05-10T08:49:19;6.03;;;1.85;;
52530;SDS011;38441;52.894;6.040;2023-05-10T08:51:47;3.13;;;1.95;;
52530;SDS011;38441;52.894;6.040;2023-05-10T08:54:16;3.72;;;2.00;;
52530;SDS011;38441;52.894;6.040;2023-05-10T08:56:45;4.05;;;2.20;;
52530;SDS011;38441;52.894;6.040;2023-05-10T08:59:12;4.18;;;2.83;;
52530;SDS011;38441;52.894;6.040;2023-05-10T09:01:41;3.30;;;2.25;;
52530;SDS011;38441;52.894;6.040;2023-05-10T09:04:09;4.15;;;2.80;;
52530;SDS011;38441;52.894;6.040;2023-05-10T09:06:40;4.43;;;2.65;;
52530;SDS011;38441;52.894;6.040;2023-05-10T09:09:09;4.63;;;3.17;;
52530;SDS011;38441;52.894;6.040;2023-05-10T09:14:06;5.13;;;3.10;;
52530;SDS011;38441;52.894;6.040;2023-05-10T09:16:43;4.97;;;2.90;;
52530;SDS011;38441;52.894;6.040;2023-05-10T09:19:58;4.72;;;2.97;;
52530;SDS011;38441;52.894;6.040;2023-05-10T09:26:26;5.30;;;3.47;;
52530;SDS011;38441;52.894;6.040;2023-05-10T09:29:01;4.57;;;3.40;;
52530;SDS011;38441;52.894;6.040;2023-05-10T09:34:19;11.70;;;5.75;;
52530;SDS011;38441;52.894;6.040;2023-05-10T09:37:03;7.90;;;5.07;;
52530;SDS011;38441;52.894;6.040;2023-05-10T09:42:36;8.38;;;5.45;;
52530;SDS011;38441;52.894;6.040;2023-05-10T09:45:05;8.05;;;5.28;;
52530;SDS011;38441;52.894;6.040;2023-05-10T09:47:37;8.35;;;5.00;;
52530;SDS011;38441;52.894;6.040;2023-05-10T09:50:09;6.03;;;4.35;;
52530;SDS011;38441;52.894;6.040;2023-05-10T09:55:43;5.82;;;4.00;;
52530;SDS011;38441;52.894;6.040;2023-05-10T09:58:10;6.20;;;3.10;;
52530;SDS011;38441;52.894;6.040;2023-05-10T10:00:38;4.80;;;3.45;;
52530;SDS011;38441;52.894;6.040;2023-05-10T10:03:06;4.90;;;2.70;;
52530;SDS011;38441;52.894;6.040;2023-05-10T10:08:12;3.90;;;2.60;;
52530;SDS011;38441;52.894;6.040;2023-05-10T13:29:50;10.48;;;6.20;;
52530;SDS011;38441;52.894;6.040;2023-05-10T13:32:16;10.30;;;6.07;;
52530;SDS011;38441;52.894;6.040;2023-05-10T13:34:42;8.18;;;5.82;;
52530;SDS011;38441;52.894;6.040;2023-05-10T13:37:08;9.32;;;6.28;;
52530;SDS011;38441;52.894;6.040;2023-05-10T13:42:12;7.82;;;5.43;;
52530;SDS011;38441;52.894;6.040;2023-05-10T13:44:38;8.43;;;5.00;;
52530;SDS011;38441;52.894;6.040;2023-05-10T13:47:08;7.10;;;4.93;;
52530;SDS011;38441;52.894;6.040;2023-05-10T13:49:33;6.30;;;4.43;;
52530;SDS011;38441;52.894;6.040;2023-05-10T13:54:49;7.22;;;4.18;;
52530;SDS011;38441;52.894;6.040;2023-05-10T13:57:17;4.80;;;3.45;;
52530;SDS011;38441;52.894;6.040;2023-05-10T13:59:43;6.10;;;3.20;;
52530;SDS011;38441;52.894;6.040;2023-05-10T14:02:09;5.20;;;3.40;;
52530;SDS011;38441;52.894;6.040;2023-05-10T14:04:39;5.35;;;2.88;;
52530;SDS011;38441;52.894;6.040;2023-05-10T14:07:09;6.45;;;2.65;;
52530;SDS011;38441;52.894;6.040;2023-05-10T14:09:35;4.22;;;2.50;;
52530;SDS011;38441;52.894;6.040;2023-05-10T14:12:01;3.40;;;1.85;;
52530;SDS011;38441;52.894;6.040;2023-05-10T14:14:32;3.25;;;2.00;;
52530;SDS011;38441;52.894;6.040;2023-05-10T15:19:09;5.68;;;3.65;;
52530;SDS011;38441;52.894;6.040;2023-05-10T15:24:10;6.95;;;4.00;;
52530;SDS011;38441;52.894;6.040;2023-05-10T15:26:39;7.05;;;4.15;;
52530;SDS011;38441;52.894;6.040;2023-05-10T15:29:05;7.15;;;4.80;;
52530;SDS011;38441;52.894;6.040;2023-05-10T15:31:31;8.05;;;4.82;;
52530;SDS011;38441;52.894;6.040;2023-05-10T15:33:59;6.35;;;4.35;;
52530;SDS011;38441;52.894;6.040;2023-05-10T15:36:31;8.75;;;4.95;;
52530;SDS011;38441;52.894;6.040;2023-05-10T15:38:57;7.72;;;4.68;;
52530;SDS011;38441;52.894;6.040;2023-05-10T15:41:23;8.02;;;4.80;;
52530;SDS011;38441;52.894;6.040;2023-05-10T15:43:50;10.63;;;5.20;;
52530;SDS011;38441;52.894;6.040;2023-05-10T15:46:16;7.82;;;4.70;;
52530;SDS011;38441;52.894;6.040;2023-05-10T15:48:43;8.73;;;4.93;;
52530;SDS011;38441;52.894;6.040;2023-05-10T15:51:09;8.52;;;5.72;;
52530;SDS011;38441;52.894;6.040;2023-05-10T15:53:37;7.25;;;5.20;;
52530;SDS011;38441;52.894;6.040;2023-05-10T15:56:19;7.68;;;4.55;;
52530;SDS011;38441;52.894;6.040;2023-05-10T15:58:47;7.13;;;5.18;;
52530;SDS011;38441;52.894;6.040;2023-05-10T16:01:13;7.18;;;4.90;;
52530;SDS011;38441;52.894;6.040;2023-05-10T16:03:42;7.05;;;4.25;;
